Welcome to Des Moines Iowa Weather. I am an independent private personal weather station on the Northwest Side of Des Moines, Iowa. Just East of Windsor Heights and just West of Glendale . This site is also mobile friendly.

There are no active watches, warnings or advisories


Visit our other weather sites:

Historical Data

Weather Station Setup



Weather Underground History page Text

Daily Summary for March 6, 2018 Units:  Both    English   Metric
« Previous Day
Next Day »
Daily Weekly Monthly Yearly Custom
  High: Low: Average:
Temperature: 33.4 °F /  0.8 °C 26.7 °F /  -2.9 °C 30.3 °F /  -0.9 °C
Dew Point: 30.0 °F /  -1.1 °C 23.8 °F /  -4.6 °C 26.8 °F /  -2.9 °C
Humidity: 91 % 83 % 87 %
Wind Speed: 16.0 mph /  25.7 km/h - 3.8 mph /  6.1 km/h
Wind Gust: 23.0 mph /  37 km/h - -
Wind:- - WSW
Pressure: 30.15 in /  1020.9 hPa 29.54 in /  1000.2 hPa -
Precipitation: 0.00 in /  0 mm    
Historical Graphs
 
 
Tabular Data for March 6, 2018
Time Temperature Dew Point Pressure Wind Wind Speed Wind Gust Humidity Rainfall Rate (Hourly)
00:00 31.4 °F /  -0.3 °C 27.0 °F /  -2.8 °C 29.71 in /  1006 hPa SW 1.0 mph /  1.6 km/h 4.0 mph /  6.4 km/h 85 % 0.00 in /  0 mm
00:05 31.4 °F /  -0.3 °C 27.1 °F /  -2.7 °C 29.68 in /  1005 hPa Calm   4.0 mph /  6.4 km/h 84 % 0.00 in /  0 mm
00:10 31.4 °F /  -0.3 °C 27.1 °F /  -2.7 °C 29.68 in /  1005 hPa Calm   4.0 mph /  6.4 km/h 84 % 0.00 in /  0 mm
00:15 31.5 °F /  -0.3 °C 28.0 °F /  -2.2 °C 29.70 in /  1005.6 hPa Calm   2.0 mph /  3.2 km/h 85 % 0.00 in /  0 mm
00:20 31.4 °F /  -0.3 °C 27.4 °F /  -2.6 °C 29.68 in /  1005 hPa Calm   3.0 mph /  4.8 km/h 85 % 0.00 in /  0 mm
00:25 31.5 °F /  -0.3 °C 27.5 °F /  -2.5 °C 29.68 in /  1005 hPa Calm   4.0 mph /  6.4 km/h 85 % 0.00 in /  0 mm
00:30 31.7 °F /  -0.2 °C 27.0 °F /  -2.8 °C 29.70 in /  1005.6 hPa SSW 1.0 mph /  1.6 km/h 4.0 mph /  6.4 km/h 84 % 0.00 in /  0 mm
00:35 31.5 °F /  -0.3 °C 27.5 °F /  -2.5 °C 29.68 in /  1005 hPa Calm   4.0 mph /  6.4 km/h 85 % 0.00 in /  0 mm
00:40 31.7 °F /  -0.2 °C 27.4 °F /  -2.6 °C 29.67 in /  1004.6 hPa West 1.0 mph /  1.6 km/h 7.0 mph /  11.3 km/h 84 % 0.00 in /  0 mm
00:45 31.7 °F /  -0.2 °C 27.0 °F /  -2.8 °C 29.70 in /  1005.6 hPa Calm   2.0 mph /  3.2 km/h 84 % 0.00 in /  0 mm
00:50 31.7 °F /  -0.2 °C 27.4 °F /  -2.6 °C 29.67 in /  1004.6 hPa West 1.0 mph /  1.6 km/h 7.0 mph /  11.3 km/h 84 % 0.00 in /  0 mm
00:55 31.7 °F /  -0.2 °C 27.4 °F /  -2.6 °C 29.67 in /  1004.6 hPa Calm   3.0 mph /  4.8 km/h 84 % 0.00 in /  0 mm
01:00 31.7 °F /  -0.2 °C 27.0 °F /  -2.8 °C 29.69 in /  1005.3 hPa Calm   2.0 mph /  3.2 km/h 84 % 0.00 in /  0 mm
01:05 31.7 °F /  -0.2 °C 27.4 °F /  -2.6 °C 29.67 in /  1004.6 hPa Calm   3.0 mph /  4.8 km/h 84 % 0.00 in /  0 mm
01:10 31.7 °F /  -0.2 °C 27.4 °F /  -2.6 °C 29.67 in /  1004.6 hPa Calm   3.0 mph /  4.8 km/h 84 % 0.00 in /  0 mm
01:15 31.8 °F /  -0.1 °C 28.0 °F /  -2.2 °C 29.69 in /  1005.3 hPa West 2.0 mph /  3.2 km/h 8.0 mph /  12.9 km/h 86 % 0.00 in /  0 mm
01:20 31.7 °F /  -0.2 °C 27.7 °F /  -2.4 °C 29.66 in /  1004.3 hPa Calm   2.0 mph /  3.2 km/h 85 % 0.00 in /  0 mm
01:25 31.7 °F /  -0.2 °C 27.7 °F /  -2.4 °C 29.66 in /  1004.3 hPa Calm   2.0 mph /  3.2 km/h 85 % 0.00 in /  0 mm
01:30 31.5 °F /  -0.3 °C 28.0 °F /  -2.2 °C 29.68 in /  1005 hPa WNW 2.0 mph /  3.2 km/h 7.0 mph /  11.3 km/h 86 % 0.00 in /  0 mm
01:35 31.8 °F /  -0.1 °C 28.1 °F /  -2.2 °C 29.66 in /  1004.3 hPa SW 1.0 mph /  1.6 km/h 9.0 mph /  14.5 km/h 86 % 0.00 in /  0 mm
01:40 31.8 °F /  -0.1 °C 28.1 °F /  -2.2 °C 29.66 in /  1004.3 hPa SW 1.0 mph /  1.6 km/h 9.0 mph /  14.5 km/h 86 % 0.00 in /  0 mm
01:45 30.4 °F /  -0.9 °C 27.0 °F /  -2.8 °C 29.69 in /  1005.3 hPa WSW 2.0 mph /  3.2 km/h 6.0 mph /  9.7 km/h 86 % 0.00 in /  0 mm
01:50 31.2 °F /  -0.4 °C 27.5 °F /  -2.5 °C 29.66 in /  1004.3 hPa WNW 2.0 mph /  3.2 km/h 9.0 mph /  14.5 km/h 86 % 0.00 in /  0 mm
01:55 30.2 °F /  -1 °C 26.5 °F /  -3.1 °C 29.66 in /  1004.3 hPa NW 2.0 mph /  3.2 km/h 10.0 mph /  16.1 km/h 86 % 0.00 in /  0 mm
02:00 29.7 °F /  -1.3 °C 26.0 °F /  -3.3 °C 29.67 in /  1004.6 hPa Calm   4.0 mph /  6.4 km/h 87 % 0.00 in /  0 mm
02:05 30.2 °F /  -1 °C 26.5 °F /  -3.1 °C 29.66 in /  1004.3 hPa NW 2.0 mph /  3.2 km/h 10.0 mph /  16.1 km/h 86 % 0.00 in /  0 mm
02:10 29.7 °F /  -1.3 °C 26.3 °F /  -3.2 °C 29.64 in /  1003.6 hPa West 1.0 mph /  1.6 km/h 7.0 mph /  11.3 km/h 87 % 0.00 in /  0 mm
02:15 29.4 °F /  -1.4 °C 26.0 °F /  -3.3 °C 29.67 in /  1004.6 hPa WSW 1.0 mph /  1.6 km/h 2.0 mph /  3.2 km/h 88 % 0.00 in /  0 mm
02:20 29.7 °F /  -1.3 °C 26.3 °F /  -3.2 °C 29.64 in /  1003.6 hPa West 1.0 mph /  1.6 km/h 7.0 mph /  11.3 km/h 87 % 0.00 in /  0 mm
02:25 29.4 °F /  -1.4 °C 26.3 °F /  -3.2 °C 29.64 in /  1003.6 hPa WSW 1.0 mph /  1.6 km/h 4.0 mph /  6.4 km/h 88 % 0.00 in /  0 mm
02:30 29.2 °F /  -1.6 °C 26.0 °F /  -3.3 °C 29.66 in /  1004.3 hPa West 2.0 mph /  3.2 km/h 4.0 mph /  6.4 km/h 88 % 0.00 in /  0 mm
02:35 29.4 °F /  -1.4 °C 26.3 °F /  -3.2 °C 29.64 in /  1003.6 hPa WSW 1.0 mph /  1.6 km/h 4.0 mph /  6.4 km/h 88 % 0.00 in /  0 mm
02:40 29.4 °F /  -1.4 °C 26.3 °F /  -3.2 °C 29.64 in /  1003.6 hPa WSW 1.0 mph /  1.6 km/h 4.0 mph /  6.4 km/h 88 % 0.00 in /  0 mm
02:45 29.2 °F /  -1.6 °C 26.1 °F /  -3.3 °C 29.63 in /  1003.3 hPa West 1.0 mph /  1.6 km/h 7.0 mph /  11.3 km/h 88 % 0.00 in /  0 mm
02:46 29.1 °F /  -1.6 °C 25.0 °F /  -3.9 °C 29.65 in /  1003.9 hPa WNW 8.0 mph /  12.9 km/h 8.0 mph /  12.9 km/h 86 % 0.00 in /  0 mm
02:50 29.2 °F /  -1.6 °C 26.1 °F /  -3.3 °C 29.63 in /  1003.3 hPa West 1.0 mph /  1.6 km/h 7.0 mph /  11.3 km/h 88 % 0.00 in /  0 mm
02:55 29.2 °F /  -1.6 °C 26.1 °F /  -3.3 °C 29.63 in /  1003.3 hPa West 1.0 mph /  1.6 km/h 7.0 mph /  11.3 km/h 88 % 0.00 in /  0 mm
03:00 29.1 °F /  -1.6 °C 25.0 °F /  -3.9 °C 29.64 in /  1003.6 hPa SSE 1.0 mph /  1.6 km/h 3.0 mph /  4.8 km/h 85 % 0.00 in /  0 mm
03:05 29.1 °F /  -1.6 °C 25.5 °F /  -3.6 °C 29.62 in /  1002.9 hPa West 2.0 mph /  3.2 km/h 10.0 mph /  16.1 km/h 86 % 0.00 in /  0 mm
03:10 29.1 °F /  -1.6 °C 25.5 °F /  -3.6 °C 29.62 in /  1002.9 hPa West 2.0 mph /  3.2 km/h 10.0 mph /  16.1 km/h 86 % 0.00 in /  0 mm
03:15 29.1 °F /  -1.6 °C 25.0 °F /  -3.9 °C 29.63 in /  1003.3 hPa South 3.0 mph /  4.8 km/h 5.0 mph /  8 km/h 86 % 0.00 in /  0 mm
03:20 29.1 °F /  -1.6 °C 25.2 °F /  -3.8 °C 29.61 in /  1002.6 hPa Calm   4.0 mph /  6.4 km/h 85 % 0.00 in /  0 mm
03:25 29.1 °F /  -1.6 °C 25.2 °F /  -3.8 °C 29.61 in /  1002.6 hPa Calm   4.0 mph /  6.4 km/h 85 % 0.00 in /  0 mm
03:30 29.1 °F /  -1.6 °C 25.5 °F /  -3.6 °C 29.60 in /  1002.3 hPa Calm   4.0 mph /  6.4 km/h 86 % 0.00 in /  0 mm
03:33 28.9 °F /  -1.7 °C 26.0 °F /  -3.3 °C 29.62 in /  1002.9 hPa SW 2.0 mph /  3.2 km/h 6.0 mph /  9.7 km/h 87 % 0.00 in /  0 mm
03:35 29.1 °F /  -1.6 °C 25.5 °F /  -3.6 °C 29.60 in /  1002.3 hPa Calm   4.0 mph /  6.4 km/h 86 % 0.00 in /  0 mm
03:40 28.8 °F /  -1.8 °C 25.4 °F /  -3.7 °C 29.60 in /  1002.3 hPa West 1.0 mph /  1.6 km/h 11.0 mph /  17.7 km/h 87 % 0.00 in /  0 mm
03:45 28.4 °F /  -2 °C 25.0 °F /  -3.9 °C 29.62 in /  1002.9 hPa SW 1.0 mph /  1.6 km/h 8.0 mph /  12.9 km/h 88 % 0.00 in /  0 mm
03:50 28.8 °F /  -1.8 °C 25.4 °F /  -3.7 °C 29.60 in /  1002.3 hPa West 1.0 mph /  1.6 km/h 11.0 mph /  17.7 km/h 87 % 0.00 in /  0 mm
03:55 28.3 °F /  -2.1 °C 25.2 °F /  -3.8 °C 29.59 in /  1001.9 hPa West 1.0 mph /  1.6 km/h 10.0 mph /  16.1 km/h 88 % 0.00 in /  0 mm
04:00 28.3 °F /  -2.1 °C 25.2 °F /  -3.8 °C 29.59 in /  1001.9 hPa West 1.0 mph /  1.6 km/h 10.0 mph /  16.1 km/h 88 % 0.00 in /  0 mm
04:01 27.7 °F /  -2.4 °C 24.0 °F /  -4.4 °C 29.62 in /  1002.9 hPa Calm   5.0 mph /  8 km/h 87 % 0.00 in /  0 mm
04:05 28.3 °F /  -2.1 °C 25.2 °F /  -3.8 °C 29.59 in /  1001.9 hPa West 1.0 mph /  1.6 km/h 10.0 mph /  16.1 km/h 88 % 0.00 in /  0 mm
04:10 27.7 °F /  -2.4 °C 24.4 °F /  -4.2 °C 29.59 in /  1001.9 hPa West 2.0 mph /  3.2 km/h 12.0 mph /  19.3 km/h 87 % 0.00 in /  0 mm
04:15 27.7 °F /  -2.4 °C 24.4 °F /  -4.2 °C 29.59 in /  1001.9 hPa West 2.0 mph /  3.2 km/h 12.0 mph /  19.3 km/h 87 % 0.00 in /  0 mm
04:16 27.5 °F /  -2.5 °C 24.0 °F /  -4.4 °C 29.61 in /  1002.6 hPa Calm   8.0 mph /  12.9 km/h 88 % 0.00 in /  0 mm
04:20 27.7 °F /  -2.4 °C 24.4 °F /  -4.2 °C 29.59 in /  1001.9 hPa West 2.0 mph /  3.2 km/h 12.0 mph /  19.3 km/h 87 % 0.00 in /  0 mm
04:25 27.7 °F /  -2.4 °C 24.4 °F /  -4.2 °C 29.59 in /  1001.9 hPa West 2.0 mph /  3.2 km/h 12.0 mph /  19.3 km/h 87 % 0.00 in /  0 mm
04:30 27.5 °F /  -2.5 °C 24.4 °F /  -4.2 °C 29.58 in /  1001.6 hPa Calm   7.0 mph /  11.3 km/h 88 % 0.00 in /  0 mm
04:31 27.4 °F /  -2.6 °C 24.0 °F /  -4.4 °C 29.60 in /  1002.3 hPa Calm   2.0 mph /  3.2 km/h 88 % 0.00 in /  0 mm
04:35 27.5 °F /  -2.5 °C 24.4 °F /  -4.2 °C 29.58 in /  1001.6 hPa Calm   7.0 mph /  11.3 km/h 88 % 0.00 in /  0 mm
04:40 27.5 °F /  -2.5 °C 24.4 °F /  -4.2 °C 29.58 in /  1001.6 hPa Calm   7.0 mph /  11.3 km/h 88 % 0.00 in /  0 mm
04:45 27.4 °F /  -2.6 °C 24.3 °F /  -4.3 °C 29.57 in /  1001.2 hPa Calm   5.0 mph /  8 km/h 88 % 0.00 in /  0 mm
04:46 27.4 °F /  -2.6 °C 25.0 °F /  -3.9 °C 29.59 in /  1001.9 hPa Calm   10.0 mph /  16.1 km/h 89 % 0.00 in /  0 mm
04:50 27.4 °F /  -2.6 °C 24.3 °F /  -4.3 °C 29.57 in /  1001.2 hPa Calm   5.0 mph /  8 km/h 88 % 0.00 in /  0 mm
04:55 27.4 °F /  -2.6 °C 24.3 °F /  -4.3 °C 29.57 in /  1001.2 hPa Calm   5.0 mph /  8 km/h 88 % 0.00 in /  0 mm
05:00 27.4 °F /  -2.6 °C 24.6 °F /  -4.1 °C 29.57 in /  1001.2 hPa SSW 1.0 mph /  1.6 km/h 11.0 mph /  17.7 km/h 89 % 0.00 in /  0 mm
05:01 27.3 °F /  -2.6 °C 25.0 °F /  -3.9 °C 29.59 in /  1001.9 hPa Calm   3.0 mph /  4.8 km/h 89 % 0.00 in /  0 mm
05:05 27.4 °F /  -2.6 °C 24.6 °F /  -4.1 °C 29.57 in /  1001.2 hPa SSW 1.0 mph /  1.6 km/h 11.0 mph /  17.7 km/h 89 % 0.00 in /  0 mm
05:10 27.4 °F /  -2.6 °C 24.6 °F /  -4.1 °C 29.57 in /  1001.2 hPa WSW 1.0 mph /  1.6 km/h 7.0 mph /  11.3 km/h 89 % 0.00 in /  0 mm
05:15 27.4 °F /  -2.6 °C 24.6 °F /  -4.1 °C 29.57 in /  1001.2 hPa WSW 1.0 mph /  1.6 km/h 7.0 mph /  11.3 km/h 89 % 0.00 in /  0 mm
05:16 27.4 °F /  -2.6 °C 25.0 °F /  -3.9 °C 29.59 in /  1001.9 hPa Calm   3.0 mph /  4.8 km/h 89 % 0.00 in /  0 mm
05:20 27.4 °F /  -2.6 °C 24.6 °F /  -4.1 °C 29.57 in /  1001.2 hPa WSW 1.0 mph /  1.6 km/h 7.0 mph /  11.3 km/h 89 % 0.00 in /  0 mm
05:25 27.4 °F /  -2.6 °C 24.6 °F /  -4.1 °C 29.57 in /  1001.2 hPa Calm   6.0 mph /  9.7 km/h 89 % 0.00 in /  0 mm
05:30 27.4 °F /  -2.6 °C 24.6 °F /  -4.1 °C 29.57 in /  1001.2 hPa Calm   6.0 mph /  9.7 km/h 89 % 0.00 in /  0 mm
05:31 27.1 °F /  -2.7 °C 24.0 °F /  -4.4 °C 29.59 in /  1001.9 hPa WSW 4.0 mph /  6.4 km/h 4.0 mph /  6.4 km/h 89 % 0.00 in /  0 mm
05:35 27.4 °F /  -2.6 °C 24.6 °F /  -4.1 °C 29.57 in /  1001.2 hPa Calm   6.0 mph /  9.7 km/h 89 % 0.00 in /  0 mm
05:40 27.0 °F /  -2.8 °C 24.2 °F /  -4.3 °C 29.57 in /  1001.2 hPa SW 1.0 mph /  1.6 km/h 7.0 mph /  11.3 km/h 89 % 0.00 in /  0 mm
05:45 27.0 °F /  -2.8 °C 24.2 °F /  -4.3 °C 29.57 in /  1001.2 hPa SW 1.0 mph /  1.6 km/h 7.0 mph /  11.3 km/h 89 % 0.00 in /  0 mm
05:46 26.9 °F /  -2.8 °C 24.0 °F /  -4.4 °C 29.59 in /  1001.9 hPa SSE 1.0 mph /  1.6 km/h 6.0 mph /  9.7 km/h 89 % 0.00 in /  0 mm
05:50 27.0 °F /  -2.8 °C 24.2 °F /  -4.3 °C 29.57 in /  1001.2 hPa SW 1.0 mph /  1.6 km/h 7.0 mph /  11.3 km/h 89 % 0.00 in /  0 mm
05:55 26.9 °F /  -2.8 °C 24.1 °F /  -4.4 °C 29.56 in /  1000.9 hPa SW 1.0 mph /  1.6 km/h 8.0 mph /  12.9 km/h 89 % 0.00 in /  0 mm
06:00 26.9 °F /  -2.8 °C 24.1 °F /  -4.4 °C 29.56 in /  1000.9 hPa SW 1.0 mph /  1.6 km/h 8.0 mph /  12.9 km/h 89 % 0.00 in /  0 mm
06:01 26.9 °F /  -2.8 °C 24.0 °F /  -4.4 °C 29.58 in /  1001.6 hPa SW 1.0 mph /  1.6 km/h 6.0 mph /  9.7 km/h 90 % 0.00 in /  0 mm
06:05 26.9 °F /  -2.8 °C 24.1 °F /  -4.4 °C 29.56 in /  1000.9 hPa SW 1.0 mph /  1.6 km/h 8.0 mph /  12.9 km/h 89 % 0.00 in /  0 mm
06:10 26.9 °F /  -2.8 °C 24.1 °F /  -4.4 °C 29.56 in /  1000.9 hPa SW 1.0 mph /  1.6 km/h 8.0 mph /  12.9 km/h 89 % 0.00 in /  0 mm
06:15 26.9 °F /  -2.8 °C 24.4 °F /  -4.2 °C 29.56 in /  1000.9 hPa SW 1.0 mph /  1.6 km/h 5.0 mph /  8 km/h 90 % 0.00 in /  0 mm
06:16 26.7 °F /  -2.9 °C 24.0 °F /  -4.4 °C 29.58 in /  1001.6 hPa WSW 3.0 mph /  4.8 km/h 6.0 mph /  9.7 km/h 90 % 0.00 in /  0 mm
06:20 26.9 °F /  -2.8 °C 24.4 °F /  -4.2 °C 29.56 in /  1000.9 hPa SW 1.0 mph /  1.6 km/h 5.0 mph /  8 km/h 90 % 0.00 in /  0 mm
06:25 26.9 °F /  -2.8 °C 24.4 °F /  -4.2 °C 29.56 in /  1000.9 hPa SW 1.0 mph /  1.6 km/h 5.0 mph /  8 km/h 90 % 0.00 in /  0 mm
06:30 26.7 °F /  -2.9 °C 24.2 °F /  -4.3 °C 29.56 in /  1000.9 hPa SW 1.0 mph /  1.6 km/h 11.0 mph /  17.7 km/h 90 % 0.00 in /  0 mm
06:31 26.7 °F /  -2.9 °C 24.0 °F /  -4.4 °C 29.58 in /  1001.6 hPa Calm   6.0 mph /  9.7 km/h 89 % 0.00 in /  0 mm
06:35 26.7 °F /  -2.9 °C 24.2 °F /  -4.3 °C 29.56 in /  1000.9 hPa SW 1.0 mph /  1.6 km/h 11.0 mph /  17.7 km/h 90 % 0.00 in /  0 mm
06:40 26.7 °F /  -2.9 °C 24.2 °F /  -4.3 °C 29.56 in /  1000.9 hPa SW 1.0 mph /  1.6 km/h 11.0 mph /  17.7 km/h 90 % 0.00 in /  0 mm
06:45 26.7 °F /  -2.9 °C 23.9 °F /  -4.5 °C 29.55 in /  1000.6 hPa West 1.0 mph /  1.6 km/h 8.0 mph /  12.9 km/h 89 % 0.00 in /  0 mm
06:46 26.8 °F /  -2.9 °C 24.0 °F /  -4.4 °C 29.57 in /  1001.2 hPa WNW 2.0 mph /  3.2 km/h 6.0 mph /  9.7 km/h 89 % 0.00 in /  0 mm
06:50 26.7 °F /  -2.9 °C 23.9 °F /  -4.5 °C 29.55 in /  1000.6 hPa West 1.0 mph /  1.6 km/h 8.0 mph /  12.9 km/h 89 % 0.00 in /  0 mm
06:55 26.9 °F /  -2.8 °C 23.8 °F /  -4.6 °C 29.55 in /  1000.6 hPa West 1.0 mph /  1.6 km/h 1.0 mph /  1.6 km/h 88 % 0.00 in /  0 mm
07:00 26.9 °F /  -2.8 °C 23.8 °F /  -4.6 °C 29.55 in /  1000.6 hPa WSW 1.0 mph /  1.6 km/h 1.0 mph /  1.6 km/h 88 % 0.00 in /  0 mm
07:01 26.9 °F /  -2.8 °C 24.0 °F /  -4.4 °C 29.58 in /  1001.6 hPa South 2.0 mph /  3.2 km/h 4.0 mph /  6.4 km/h 88 % 0.00 in /  0 mm
07:13 26.9 °F /  -2.8 °C 23.8 °F /  -4.6 °C 29.55 in /  1000.6 hPa WSW 1.0 mph /  1.6 km/h   88 % 0.00 in /  0 mm
07:18 27.1 °F /  -2.7 °C 24.0 °F /  -4.4 °C 29.55 in /  1000.6 hPa Calm   3.0 mph /  4.8 km/h 88 % 0.00 in /  0 mm
07:23 27.2 °F /  -2.7 °C 24.1 °F /  -4.4 °C 29.55 in /  1000.6 hPa Calm   3.0 mph /  4.8 km/h 88 % 0.00 in /  0 mm
07:25 27.2 °F /  -2.7 °C 24.1 °F /  -4.4 °C 29.55 in /  1000.6 hPa Calm     88 % 0.00 in /  0 mm
07:28 27.2 °F /  -2.7 °C 24.1 °F /  -4.4 °C 29.55 in /  1000.6 hPa SW 3.0 mph /  4.8 km/h 4.0 mph /  6.4 km/h 88 % 0.00 in /  0 mm
07:30 27.2 °F /  -2.7 °C 24.1 °F /  -4.4 °C 29.55 in /  1000.6 hPa SW 1.0 mph /  1.6 km/h 4.0 mph /  6.4 km/h 88 % 0.00 in /  0 mm
07:35 27.2 °F /  -2.7 °C 24.1 °F /  -4.4 °C 29.55 in /  1000.6 hPa SW 1.0 mph /  1.6 km/h 4.0 mph /  6.4 km/h 88 % 0.00 in /  0 mm
07:40 27.2 °F /  -2.7 °C 24.1 °F /  -4.4 °C 29.55 in /  1000.6 hPa SW 1.0 mph /  1.6 km/h 4.0 mph /  6.4 km/h 88 % 0.00 in /  0 mm
07:45 27.2 °F /  -2.7 °C 23.9 °F /  -4.5 °C 29.55 in /  1000.6 hPa SW 1.0 mph /  1.6 km/h 4.0 mph /  6.4 km/h 87 % 0.00 in /  0 mm
07:46 27.4 °F /  -2.6 °C 24.0 °F /  -4.4 °C 29.57 in /  1001.2 hPa Calm   5.0 mph /  8 km/h 88 % 0.00 in /  0 mm
07:50 27.2 °F /  -2.7 °C 23.9 °F /  -4.5 °C 29.55 in /  1000.6 hPa SW 1.0 mph /  1.6 km/h 4.0 mph /  6.4 km/h 87 % 0.00 in /  0 mm
07:55 27.2 °F /  -2.7 °C 23.9 °F /  -4.5 °C 29.55 in /  1000.6 hPa SW 1.0 mph /  1.6 km/h 4.0 mph /  6.4 km/h 87 % 0.00 in /  0 mm
08:00 27.4 °F /  -2.6 °C 24.3 °F /  -4.3 °C 29.55 in /  1000.6 hPa Calm   7.0 mph /  11.3 km/h 88 % 0.00 in /  0 mm
08:01 27.8 °F /  -2.3 °C 25.0 °F /  -3.9 °C 29.57 in /  1001.2 hPa Calm   4.0 mph /  6.4 km/h 88 % 0.00 in /  0 mm
08:05 27.4 °F /  -2.6 °C 24.3 °F /  -4.3 °C 29.55 in /  1000.6 hPa Calm   7.0 mph /  11.3 km/h 88 % 0.00 in /  0 mm
08:10 27.4 °F /  -2.6 °C 24.3 °F /  -4.3 °C 29.55 in /  1000.6 hPa Calm   7.0 mph /  11.3 km/h 88 % 0.00 in /  0 mm
08:15 27.9 °F /  -2.3 °C 24.8 °F /  -4 °C 29.54 in /  1000.2 hPa Calm   5.0 mph /  8 km/h 88 % 0.00 in /  0 mm
08:16 28.2 °F /  -2.1 °C 25.0 °F /  -3.9 °C 29.57 in /  1001.2 hPa ESE 1.0 mph /  1.6 km/h 3.0 mph /  4.8 km/h 88 % 0.00 in /  0 mm
08:20 27.9 °F /  -2.3 °C 24.8 °F /  -4 °C 29.54 in /  1000.2 hPa Calm   5.0 mph /  8 km/h 88 % 0.00 in /  0 mm
08:25 27.9 °F /  -2.3 °C 24.8 °F /  -4 °C 29.54 in /  1000.2 hPa Calm   5.0 mph /  8 km/h 88 % 0.00 in /  0 mm
08:30 28.3 °F /  -2.1 °C 25.2 °F /  -3.8 °C 29.55 in /  1000.6 hPa SSW 1.0 mph /  1.6 km/h 5.0 mph /  8 km/h 88 % 0.00 in /  0 mm
08:31 28.4 °F /  -2 °C 25.0 °F /  -3.9 °C 29.57 in /  1001.2 hPa SSE 1.0 mph /  1.6 km/h 3.0 mph /  4.8 km/h 87 % 0.00 in /  0 mm
08:35 28.3 °F /  -2.1 °C 25.2 °F /  -3.8 °C 29.55 in /  1000.6 hPa SSW 1.0 mph /  1.6 km/h 5.0 mph /  8 km/h 88 % 0.00 in /  0 mm
08:40 28.3 °F /  -2.1 °C 25.2 °F /  -3.8 °C 29.55 in /  1000.6 hPa SSW 1.0 mph /  1.6 km/h 5.0 mph /  8 km/h 88 % 0.00 in /  0 mm
08:45 28.4 °F /  -2 °C 25.0 °F /  -3.9 °C 29.54 in /  1000.2 hPa SSW 1.0 mph /  1.6 km/h 5.0 mph /  8 km/h 87 % 0.00 in /  0 mm
08:46 28.5 °F /  -1.9 °C 25.0 °F /  -3.9 °C 29.57 in /  1001.2 hPa SSE 4.0 mph /  6.4 km/h 6.0 mph /  9.7 km/h 86 % 0.00 in /  0 mm
08:50 28.4 °F /  -2 °C 25.0 °F /  -3.9 °C 29.54 in /  1000.2 hPa SSW 1.0 mph /  1.6 km/h 5.0 mph /  8 km/h 87 % 0.00 in /  0 mm
08:55 28.4 °F /  -2 °C 25.0 °F /  -3.9 °C 29.54 in /  1000.2 hPa SSW 1.0 mph /  1.6 km/h 5.0 mph /  8 km/h 87 % 0.00 in /  0 mm
09:00 28.5 °F /  -1.9 °C 24.9 °F /  -3.9 °C 29.55 in /  1000.6 hPa SSW 1.0 mph /  1.6 km/h 7.0 mph /  11.3 km/h 86 % 0.00 in /  0 mm
09:01 28.9 °F /  -1.7 °C 25.0 °F /  -3.9 °C 29.57 in /  1001.2 hPa South 2.0 mph /  3.2 km/h 2.0 mph /  3.2 km/h 86 % 0.00 in /  0 mm
09:05 28.5 °F /  -1.9 °C 24.9 °F /  -3.9 °C 29.55 in /  1000.6 hPa SSW 1.0 mph /  1.6 km/h 7.0 mph /  11.3 km/h 86 % 0.00 in /  0 mm
09:10 28.5 °F /  -1.9 °C 24.9 °F /  -3.9 °C 29.55 in /  1000.6 hPa SSW 1.0 mph /  1.6 km/h 7.0 mph /  11.3 km/h 86 % 0.00 in /  0 mm
09:15 28.9 °F /  -1.7 °C 25.2 °F /  -3.8 °C 29.55 in /  1000.6 hPa Calm   4.0 mph /  6.4 km/h 86 % 0.00 in /  0 mm
09:16 29.4 °F /  -1.4 °C 26.0 °F /  -3.3 °C 29.58 in /  1001.6 hPa Calm     86 % 0.00 in /  0 mm
09:20 28.9 °F /  -1.7 °C 25.2 °F /  -3.8 °C 29.55 in /  1000.6 hPa Calm   4.0 mph /  6.4 km/h 86 % 0.00 in /  0 mm
09:25 28.9 °F /  -1.7 °C 25.2 °F /  -3.8 °C 29.55 in /  1000.6 hPa Calm   4.0 mph /  6.4 km/h 86 % 0.00 in /  0 mm
09:30 29.4 °F /  -1.4 °C 25.7 °F /  -3.5 °C 29.56 in /  1000.9 hPa Calm     86 % 0.00 in /  0 mm
09:31 29.8 °F /  -1.2 °C 26.0 °F /  -3.3 °C 29.59 in /  1001.9 hPa Calm   2.0 mph /  3.2 km/h 86 % 0.00 in /  0 mm
09:35 29.4 °F /  -1.4 °C 25.7 °F /  -3.5 °C 29.56 in /  1000.9 hPa Calm     86 % 0.00 in /  0 mm
09:40 29.4 °F /  -1.4 °C 25.7 °F /  -3.5 °C 29.56 in /  1000.9 hPa Calm     86 % 0.00 in /  0 mm
09:45 29.8 °F /  -1.2 °C 26.1 °F /  -3.3 °C 29.57 in /  1001.2 hPa Calm   1.0 mph /  1.6 km/h 86 % 0.00 in /  0 mm
09:46 30.1 °F /  -1.1 °C 26.0 °F /  -3.3 °C 29.60 in /  1002.3 hPa ENE 3.0 mph /  4.8 km/h 3.0 mph /  4.8 km/h 86 % 0.00 in /  0 mm
09:50 29.8 °F /  -1.2 °C 26.1 °F /  -3.3 °C 29.57 in /  1001.2 hPa Calm   1.0 mph /  1.6 km/h 86 % 0.00 in /  0 mm
09:55 29.8 °F /  -1.2 °C 26.1 °F /  -3.3 °C 29.57 in /  1001.2 hPa Calm   1.0 mph /  1.6 km/h 86 % 0.00 in /  0 mm
10:00 30.1 °F /  -1.1 °C 26.4 °F /  -3.1 °C 29.58 in /  1001.6 hPa Calm   3.0 mph /  4.8 km/h 86 % 0.00 in /  0 mm
10:01 30.0 °F /  -1.1 °C 26.0 °F /  -3.3 °C 29.62 in /  1002.9 hPa NNW 1.0 mph /  1.6 km/h 3.0 mph /  4.8 km/h 86 % 0.00 in /  0 mm
10:05 30.1 °F /  -1.1 °C 26.4 °F /  -3.1 °C 29.58 in /  1001.6 hPa Calm   3.0 mph /  4.8 km/h 86 % 0.00 in /  0 mm
10:10 30.1 °F /  -1.1 °C 26.4 °F /  -3.1 °C 29.58 in /  1001.6 hPa Calm   3.0 mph /  4.8 km/h 86 % 0.00 in /  0 mm
10:15 30.0 °F /  -1.1 °C 26.3 °F /  -3.2 °C 29.60 in /  1002.3 hPa NNE 1.0 mph /  1.6 km/h 7.0 mph /  11.3 km/h 86 % 0.00 in /  0 mm
10:16 30.2 °F /  -1 °C 27.0 °F /  -2.8 °C 29.63 in /  1003.3 hPa Calm   5.0 mph /  8 km/h 87 % 0.00 in /  0 mm
10:20 30.0 °F /  -1.1 °C 26.3 °F /  -3.2 °C 29.60 in /  1002.3 hPa NNE 1.0 mph /  1.6 km/h 7.0 mph /  11.3 km/h 86 % 0.00 in /  0 mm
10:25 30.0 °F /  -1.1 °C 26.3 °F /  -3.2 °C 29.60 in /  1002.3 hPa NNE 1.0 mph /  1.6 km/h 7.0 mph /  11.3 km/h 86 % 0.00 in /  0 mm
10:30 30.3 °F /  -0.9 °C 26.9 °F /  -2.8 °C 29.61 in /  1002.6 hPa North 1.0 mph /  1.6 km/h 7.0 mph /  11.3 km/h 87 % 0.00 in /  0 mm
10:31 30.1 °F /  -1.1 °C 27.0 °F /  -2.8 °C 29.65 in /  1003.9 hPa NE 2.0 mph /  3.2 km/h 9.0 mph /  14.5 km/h 87 % 0.00 in /  0 mm
10:35 30.3 °F /  -0.9 °C 26.9 °F /  -2.8 °C 29.61 in /  1002.6 hPa North 1.0 mph /  1.6 km/h 7.0 mph /  11.3 km/h 87 % 0.00 in /  0 mm
10:40 30.3 °F /  -0.9 °C 26.9 °F /  -2.8 °C 29.61 in /  1002.6 hPa North 1.0 mph /  1.6 km/h 7.0 mph /  11.3 km/h 87 % 0.00 in /  0 mm
10:45 29.9 °F /  -1.2 °C 26.5 °F /  -3.1 °C 29.62 in /  1002.9 hPa NE 3.0 mph /  4.8 km/h 12.0 mph /  19.3 km/h 87 % 0.00 in /  0 mm
10:46 29.6 °F /  -1.3 °C 26.0 °F /  -3.3 °C 29.66 in /  1004.3 hPa North 4.0 mph /  6.4 km/h 11.0 mph /  17.7 km/h 87 % 0.00 in /  0 mm
10:50 29.9 °F /  -1.2 °C 26.5 °F /  -3.1 °C 29.62 in /  1002.9 hPa NE 3.0 mph /  4.8 km/h 12.0 mph /  19.3 km/h 87 % 0.00 in /  0 mm
10:55 29.9 °F /  -1.2 °C 26.5 °F /  -3.1 °C 29.62 in /  1002.9 hPa NE 3.0 mph /  4.8 km/h 12.0 mph /  19.3 km/h 87 % 0.00 in /  0 mm
11:00 29.6 °F /  -1.3 °C 26.5 °F /  -3.1 °C 29.64 in /  1003.6 hPa NNW 4.0 mph /  6.4 km/h 13.0 mph /  20.9 km/h 88 % 0.00 in /  0 mm
11:01 29.6 °F /  -1.3 °C 27.0 °F /  -2.8 °C 29.68 in /  1005 hPa NNE 3.0 mph /  4.8 km/h 9.0 mph /  14.5 km/h 88 % 0.00 in /  0 mm
11:05 29.6 °F /  -1.3 °C 26.5 °F /  -3.1 °C 29.64 in /  1003.6 hPa NNW 4.0 mph /  6.4 km/h 13.0 mph /  20.9 km/h 88 % 0.00 in /  0 mm
11:10 29.6 °F /  -1.3 °C 26.5 °F /  -3.1 °C 29.64 in /  1003.6 hPa NNW 4.0 mph /  6.4 km/h 13.0 mph /  20.9 km/h 88 % 0.00 in /  0 mm
11:15 29.6 °F /  -1.3 °C 26.5 °F /  -3.1 °C 29.66 in /  1004.3 hPa NNE 4.0 mph /  6.4 km/h 12.0 mph /  19.3 km/h 88 % 0.00 in /  0 mm
11:16 29.7 °F /  -1.3 °C 27.0 °F /  -2.8 °C 29.70 in /  1005.6 hPa NNW 1.0 mph /  1.6 km/h 9.0 mph /  14.5 km/h 89 % 0.00 in /  0 mm
11:20 29.6 °F /  -1.3 °C 26.5 °F /  -3.1 °C 29.66 in /  1004.3 hPa NNE 4.0 mph /  6.4 km/h 12.0 mph /  19.3 km/h 88 % 0.00 in /  0 mm
11:25 29.6 °F /  -1.3 °C 26.5 °F /  -3.1 °C 29.66 in /  1004.3 hPa NNE 4.0 mph /  6.4 km/h 12.0 mph /  19.3 km/h 88 % 0.00 in /  0 mm
11:30 29.7 °F /  -1.3 °C 26.9 °F /  -2.8 °C 29.67 in /  1004.6 hPa North 3.0 mph /  4.8 km/h 10.0 mph /  16.1 km/h 89 % 0.00 in /  0 mm
11:31 29.8 °F /  -1.2 °C 27.0 °F /  -2.8 °C 29.71 in /  1006 hPa North 1.0 mph /  1.6 km/h 12.0 mph /  19.3 km/h 89 % 0.00 in /  0 mm
11:35 29.7 °F /  -1.3 °C 26.9 °F /  -2.8 °C 29.67 in /  1004.6 hPa North 3.0 mph /  4.8 km/h 10.0 mph /  16.1 km/h 89 % 0.00 in /  0 mm
11:40 29.7 °F /  -1.3 °C 26.9 °F /  -2.8 °C 29.67 in /  1004.6 hPa North 3.0 mph /  4.8 km/h 10.0 mph /  16.1 km/h 89 % 0.00 in /  0 mm
11:45 29.9 °F /  -1.2 °C 27.1 °F /  -2.7 °C 29.69 in /  1005.3 hPa North 4.0 mph /  6.4 km/h 13.0 mph /  20.9 km/h 89 % 0.00 in /  0 mm
11:46 30.4 °F /  -0.9 °C 28.0 °F /  -2.2 °C 29.73 in /  1006.7 hPa NW 2.0 mph /  3.2 km/h 10.0 mph /  16.1 km/h 89 % 0.00 in /  0 mm
11:50 29.9 °F /  -1.2 °C 27.1 °F /  -2.7 °C 29.69 in /  1005.3 hPa North 4.0 mph /  6.4 km/h 13.0 mph /  20.9 km/h 89 % 0.00 in /  0 mm
11:55 29.9 °F /  -1.2 °C 27.1 °F /  -2.7 °C 29.69 in /  1005.3 hPa North 4.0 mph /  6.4 km/h 13.0 mph /  20.9 km/h 89 % 0.00 in /  0 mm
12:00 30.4 °F /  -0.9 °C 27.3 °F /  -2.6 °C 29.70 in /  1005.6 hPa NNW 5.0 mph /  8 km/h 15.0 mph /  24.1 km/h 88 % 0.00 in /  0 mm
12:01 30.5 °F /  -0.8 °C 27.0 °F /  -2.8 °C 29.74 in /  1007 hPa NNE 10.0 mph /  16.1 km/h 13.0 mph /  20.9 km/h 88 % 0.01 in /  0.25 mm
12:05 30.4 °F /  -0.9 °C 27.3 °F /  -2.6 °C 29.70 in /  1005.6 hPa NNW 5.0 mph /  8 km/h 15.0 mph /  24.1 km/h 88 % 0.00 in /  0 mm
12:10 30.4 °F /  -0.9 °C 27.3 °F /  -2.6 °C 29.70 in /  1005.6 hPa NNW 5.0 mph /  8 km/h 15.0 mph /  24.1 km/h 88 % 0.00 in /  0 mm
12:15 30.4 °F /  -0.9 °C 27.3 °F /  -2.6 °C 29.71 in /  1006 hPa NNE 6.0 mph /  9.7 km/h 17.0 mph /  27.4 km/h 88 % 0.00 in /  0 mm
12:17 30.5 °F /  -0.8 °C 27.0 °F /  -2.8 °C 29.75 in /  1007.3 hPa North 4.0 mph /  6.4 km/h 12.0 mph /  19.3 km/h 88 % 0.01 in /  0.25 mm
12:20 30.4 °F /  -0.9 °C 27.3 °F /  -2.6 °C 29.71 in /  1006 hPa NNE 6.0 mph /  9.7 km/h 17.0 mph /  27.4 km/h 88 % 0.00 in /  0 mm
12:25 30.4 °F /  -0.9 °C 27.3 °F /  -2.6 °C 29.71 in /  1006 hPa NNE 6.0 mph /  9.7 km/h 17.0 mph /  27.4 km/h 88 % 0.00 in /  0 mm
12:30 30.6 °F /  -0.8 °C 27.8 °F /  -2.3 °C 29.73 in /  1006.7 hPa NNW 5.0 mph /  8 km/h 17.0 mph /  27.4 km/h 89 % 0.00 in /  0 mm
12:32 31.6 °F /  -0.2 °C 28.0 °F /  -2.2 °C 29.77 in /  1008 hPa Calm   14.0 mph /  22.5 km/h 87 % 0.02 in /  0.51 mm
12:35 30.6 °F /  -0.8 °C 27.8 °F /  -2.3 °C 29.73 in /  1006.7 hPa NNW 5.0 mph /  8 km/h 17.0 mph /  27.4 km/h 89 % 0.00 in /  0 mm
12:40 30.6 °F /  -0.8 °C 27.8 °F /  -2.3 °C 29.73 in /  1006.7 hPa NNW 5.0 mph /  8 km/h 17.0 mph /  27.4 km/h 89 % 0.00 in /  0 mm
12:45 31.6 °F /  -0.2 °C 28.2 °F /  -2.1 °C 29.74 in /  1007 hPa NNE 5.0 mph /  8 km/h 16.0 mph /  25.7 km/h 87 % 0.00 in /  0 mm
12:47 31.6 °F /  -0.2 °C 28.0 °F /  -2.2 °C 29.77 in /  1008 hPa WNW 3.0 mph /  4.8 km/h 13.0 mph /  20.9 km/h 86 % 0.03 in /  0.76 mm
12:50 31.6 °F /  -0.2 °C 28.2 °F /  -2.1 °C 29.74 in /  1007 hPa NNE 5.0 mph /  8 km/h 16.0 mph /  25.7 km/h 87 % 0.00 in /  0 mm
12:55 31.6 °F /  -0.2 °C 28.2 °F /  -2.1 °C 29.74 in /  1007 hPa NNE 5.0 mph /  8 km/h 16.0 mph /  25.7 km/h 87 % 0.00 in /  0 mm
13:00 31.6 °F /  -0.2 °C 27.9 °F /  -2.3 °C 29.75 in /  1007.3 hPa NNE 6.0 mph /  9.7 km/h 15.0 mph /  24.1 km/h 86 % 0.00 in /  0 mm
13:02 32.0 °F /  0 °C 28.0 °F /  -2.2 °C 29.78 in /  1008.4 hPa NW 2.0 mph /  3.2 km/h 11.0 mph /  17.7 km/h 86 % 0.03 in /  0.76 mm
13:05 31.6 °F /  -0.2 °C 27.9 °F /  -2.3 °C 29.75 in /  1007.3 hPa NNE 6.0 mph /  9.7 km/h 15.0 mph /  24.1 km/h 86 % 0.00 in /  0 mm
13:10 31.6 °F /  -0.2 °C 27.9 °F /  -2.3 °C 29.75 in /  1007.3 hPa NNE 6.0 mph /  9.7 km/h 15.0 mph /  24.1 km/h 86 % 0.00 in /  0 mm
13:15 32.0 °F /  0 °C 28.3 °F /  -2.1 °C 29.75 in /  1007.3 hPa North 5.0 mph /  8 km/h 12.0 mph /  19.3 km/h 86 % 0.00 in /  0 mm
13:17 31.6 °F /  -0.2 °C 28.0 °F /  -2.2 °C 29.79 in /  1008.7 hPa WNW 5.0 mph /  8 km/h 11.0 mph /  17.7 km/h 87 % 0.03 in /  0.76 mm
13:20 32.0 °F /  0 °C 28.3 °F /  -2.1 °C 29.75 in /  1007.3 hPa North 5.0 mph /  8 km/h 12.0 mph /  19.3 km/h 86 % 0.00 in /  0 mm
13:25 32.0 °F /  0 °C 28.3 °F /  -2.1 °C 29.75 in /  1007.3 hPa North 5.0 mph /  8 km/h 12.0 mph /  19.3 km/h 86 % 0.00 in /  0 mm
13:30 31.6 °F /  -0.2 °C 27.9 °F /  -2.3 °C 29.77 in /  1008 hPa NNW 6.0 mph /  9.7 km/h 14.0 mph /  22.5 km/h 86 % 0.00 in /  0 mm
13:32 31.2 °F /  -0.4 °C 28.0 °F /  -2.2 °C 29.80 in /  1009 hPa NE 5.0 mph /  8 km/h 9.0 mph /  14.5 km/h 87 % 0.02 in /  0.51 mm
13:35 31.6 °F /  -0.2 °C 27.9 °F /  -2.3 °C 29.77 in /  1008 hPa NNW 6.0 mph /  9.7 km/h 14.0 mph /  22.5 km/h 86 % 0.00 in /  0 mm
13:40 31.6 °F /  -0.2 °C 27.9 °F /  -2.3 °C 29.77 in /  1008 hPa NNW 6.0 mph /  9.7 km/h 14.0 mph /  22.5 km/h 86 % 0.00 in /  0 mm
13:45 31.2 °F /  -0.4 °C 27.8 °F /  -2.3 °C 29.77 in /  1008 hPa NNE 5.0 mph /  8 km/h 15.0 mph /  24.1 km/h 87 % 0.00 in /  0 mm
13:47 31.3 °F /  -0.4 °C 29.0 °F /  -1.7 °C 29.81 in /  1009.4 hPa NW 7.0 mph /  11.3 km/h 10.0 mph /  16.1 km/h 89 % 0.01 in /  0.25 mm
13:50 31.2 °F /  -0.4 °C 27.8 °F /  -2.3 °C 29.77 in /  1008 hPa NNE 5.0 mph /  8 km/h 15.0 mph /  24.1 km/h 87 % 0.00 in /  0 mm
13:55 31.2 °F /  -0.4 °C 27.8 °F /  -2.3 °C 29.77 in /  1008 hPa NNE 5.0 mph /  8 km/h 15.0 mph /  24.1 km/h 87 % 0.00 in /  0 mm
14:00 31.3 °F /  -0.4 °C 28.4 °F /  -2 °C 29.78 in /  1008.4 hPa NNW 5.0 mph /  8 km/h 13.0 mph /  20.9 km/h 89 % 0.00 in /  0 mm
14:02 31.5 °F /  -0.3 °C 29.0 °F /  -1.7 °C 29.82 in /  1009.7 hPa NW 4.0 mph /  6.4 km/h 10.0 mph /  16.1 km/h 90 % 0.00 in /  0 mm
14:05 31.3 °F /  -0.4 °C 28.4 °F /  -2 °C 29.78 in /  1008.4 hPa NNW 5.0 mph /  8 km/h 13.0 mph /  20.9 km/h 89 % 0.00 in /  0 mm
14:10 31.3 °F /  -0.4 °C 28.4 °F /  -2 °C 29.78 in /  1008.4 hPa NNW 5.0 mph /  8 km/h 13.0 mph /  20.9 km/h 89 % 0.00 in /  0 mm
14:15 31.5 °F /  -0.3 °C 28.9 °F /  -1.7 °C 29.79 in /  1008.7 hPa NW 5.0 mph /  8 km/h 11.0 mph /  17.7 km/h 90 % 0.00 in /  0 mm
14:17 31.9 °F /  -0.1 °C 29.0 °F /  -1.7 °C 29.83 in /  1010 hPa NNW 4.0 mph /  6.4 km/h 18.0 mph /  29 km/h 90 % 0.01 in /  0.25 mm
14:20 31.5 °F /  -0.3 °C 28.9 °F /  -1.7 °C 29.79 in /  1008.7 hPa NW 5.0 mph /  8 km/h 11.0 mph /  17.7 km/h 90 % 0.00 in /  0 mm
14:25 31.5 °F /  -0.3 °C 28.9 °F /  -1.7 °C 29.79 in /  1008.7 hPa NW 5.0 mph /  8 km/h 11.0 mph /  17.7 km/h 90 % 0.00 in /  0 mm
14:30 32.0 °F /  0 °C 29.7 °F /  -1.3 °C 29.80 in /  1009 hPa NNW 7.0 mph /  11.3 km/h 20.0 mph /  32.2 km/h 91 % 0.00 in /  0 mm
14:35 32.0 °F /  0 °C 29.7 °F /  -1.3 °C 29.80 in /  1009 hPa NNW 7.0 mph /  11.3 km/h 20.0 mph /  32.2 km/h 91 % 0.00 in /  0 mm
14:36 32.2 °F /  0.1 °C 30.0 °F /  -1.1 °C 29.84 in /  1010.4 hPa West 6.0 mph /  9.7 km/h 13.0 mph /  20.9 km/h 91 % 0.02 in /  0.51 mm
14:40 32.0 °F /  0 °C 29.7 °F /  -1.3 °C 29.80 in /  1009 hPa NNW 7.0 mph /  11.3 km/h 20.0 mph /  32.2 km/h 91 % 0.00 in /  0 mm
14:45 32.3 °F /  0.2 °C 30.0 °F /  -1.1 °C 29.81 in /  1009.4 hPa NNW 8.0 mph /  12.9 km/h 17.0 mph /  27.4 km/h 91 % 0.00 in /  0 mm
14:47 32.3 °F /  0.2 °C 30.0 °F /  -1.1 °C 29.85 in /  1010.7 hPa WNW 9.0 mph /  14.5 km/h 18.0 mph /  29 km/h 90 % 0.02 in /  0.51 mm
14:50 32.3 °F /  0.2 °C 30.0 °F /  -1.1 °C 29.81 in /  1009.4 hPa NNW 8.0 mph /  12.9 km/h 17.0 mph /  27.4 km/h 91 % 0.00 in /  0 mm
14:55 32.3 °F /  0.2 °C 30.0 °F /  -1.1 °C 29.81 in /  1009.4 hPa NNW 8.0 mph /  12.9 km/h 17.0 mph /  27.4 km/h 91 % 0.00 in /  0 mm
15:00 32.3 °F /  0.2 °C 29.7 °F /  -1.3 °C 29.82 in /  1009.7 hPa North 8.0 mph /  12.9 km/h 21.0 mph /  33.8 km/h 90 % 0.00 in /  0 mm
15:02 32.8 °F /  0.4 °C 30.0 °F /  -1.1 °C 29.86 in /  1011.1 hPa NNW 15.0 mph /  24.1 km/h 17.0 mph /  27.4 km/h 89 % 0.02 in /  0.51 mm
15:04 32.8 °F /  0.4 °C 30.0 °F /  -1.1 °C 29.83 in /  1010 hPa North 10.0 mph /  16.1 km/h 19.0 mph /  30.6 km/h 89 % 0.01 in /  0.25 mm
15:05 32.3 °F /  0.2 °C 29.7 °F /  -1.3 °C 29.82 in /  1009.7 hPa North 8.0 mph /  12.9 km/h 21.0 mph /  33.8 km/h 90 % 0.00 in /  0 mm
15:10 32.3 °F /  0.2 °C 29.7 °F /  -1.3 °C 29.82 in /  1009.7 hPa North 8.0 mph /  12.9 km/h 21.0 mph /  33.8 km/h 90 % 0.00 in /  0 mm
15:15 32.8 °F /  0.4 °C 29.9 °F /  -1.2 °C 29.83 in /  1010 hPa NNW 8.0 mph /  12.9 km/h 19.0 mph /  30.6 km/h 89 % 0.00 in /  0 mm
15:18 32.9 °F /  0.5 °C 30.0 °F /  -1.1 °C 29.87 in /  1011.4 hPa WNW 4.0 mph /  6.4 km/h 18.0 mph /  29 km/h 88 % 0.01 in /  0.25 mm
15:20 32.8 °F /  0.4 °C 29.9 °F /  -1.2 °C 29.83 in /  1010 hPa NNW 8.0 mph /  12.9 km/h 19.0 mph /  30.6 km/h 89 % 0.00 in /  0 mm
15:25 32.8 °F /  0.4 °C 29.9 °F /  -1.2 °C 29.83 in /  1010 hPa NNW 8.0 mph /  12.9 km/h 19.0 mph /  30.6 km/h 89 % 0.00 in /  0 mm
15:30 32.9 °F /  0.5 °C 29.8 °F /  -1.2 °C 29.84 in /  1010.4 hPa NNW 9.0 mph /  14.5 km/h 23.0 mph /  37 km/h 88 % 0.00 in /  0 mm
15:32 32.9 °F /  0.5 °C 30.0 °F /  -1.1 °C 29.89 in /  1012.1 hPa West 3.0 mph /  4.8 km/h 15.0 mph /  24.1 km/h 88 % 0.00 in /  0 mm
15:35 32.9 °F /  0.5 °C 29.8 °F /  -1.2 °C 29.84 in /  1010.4 hPa NNW 9.0 mph /  14.5 km/h 23.0 mph /  37 km/h 88 % 0.00 in /  0 mm
15:40 32.9 °F /  0.5 °C 29.8 °F /  -1.2 °C 29.84 in /  1010.4 hPa NNW 9.0 mph /  14.5 km/h 23.0 mph /  37 km/h 88 % 0.00 in /  0 mm
15:45 32.9 °F /  0.5 °C 29.8 °F /  -1.2 °C 29.86 in /  1011.1 hPa NNW 7.0 mph /  11.3 km/h 23.0 mph /  37 km/h 88 % 0.00 in /  0 mm
15:48 33.0 °F /  0.6 °C 30.0 °F /  -1.1 °C 29.90 in /  1012.4 hPa North 3.0 mph /  4.8 km/h 17.0 mph /  27.4 km/h 88 % 0.01 in /  0.25 mm
15:50 32.9 °F /  0.5 °C 29.8 °F /  -1.2 °C 29.86 in /  1011.1 hPa NNW 7.0 mph /  11.3 km/h 23.0 mph /  37 km/h 88 % 0.00 in /  0 mm
15:55 32.9 °F /  0.5 °C 29.8 °F /  -1.2 °C 29.86 in /  1011.1 hPa NNW 7.0 mph /  11.3 km/h 23.0 mph /  37 km/h 88 % 0.00 in /  0 mm
16:00 33.0 °F /  0.6 °C 29.8 °F /  -1.2 °C 29.87 in /  1011.4 hPa NNW 8.0 mph /  12.9 km/h 19.0 mph /  30.6 km/h 88 % 0.00 in /  0 mm
16:02 33.2 °F /  0.7 °C 30.0 °F /  -1.1 °C 29.91 in /  1012.8 hPa NNW 5.0 mph /  8 km/h 14.0 mph /  22.5 km/h 87 % 0.01 in /  0.25 mm
16:05 33.0 °F /  0.6 °C 29.8 °F /  -1.2 °C 29.87 in /  1011.4 hPa NNW 8.0 mph /  12.9 km/h 19.0 mph /  30.6 km/h 88 % 0.00 in /  0 mm
16:10 33.0 °F /  0.6 °C 29.8 °F /  -1.2 °C 29.87 in /  1011.4 hPa NNW 8.0 mph /  12.9 km/h 19.0 mph /  30.6 km/h 88 % 0.00 in /  0 mm
16:15 33.2 °F /  0.7 °C 29.8 °F /  -1.2 °C 29.88 in /  1011.7 hPa NNW 7.0 mph /  11.3 km/h 21.0 mph /  33.8 km/h 87 % 0.00 in /  0 mm
16:17 33.2 °F /  0.7 °C 30.0 °F /  -1.1 °C 29.92 in /  1013.1 hPa NNE 1.0 mph /  1.6 km/h 14.0 mph /  22.5 km/h 87 % 0.01 in /  0.25 mm
16:20 33.2 °F /  0.7 °C 29.8 °F /  -1.2 °C 29.88 in /  1011.7 hPa NNW 7.0 mph /  11.3 km/h 21.0 mph /  33.8 km/h 87 % 0.00 in /  0 mm
16:25 33.2 °F /  0.7 °C 29.8 °F /  -1.2 °C 29.88 in /  1011.7 hPa NNW 7.0 mph /  11.3 km/h 21.0 mph /  33.8 km/h 87 % 0.00 in /  0 mm
16:30 33.3 °F /  0.7 °C 29.9 °F /  -1.2 °C 29.89 in /  1012.1 hPa NNW 7.0 mph /  11.3 km/h 19.0 mph /  30.6 km/h 87 % 0.00 in /  0 mm
16:32 33.4 °F /  0.8 °C 30.0 °F /  -1.1 °C 29.94 in /  1013.8 hPa NE 16.0 mph /  25.7 km/h 16.0 mph /  25.7 km/h 86 % 0.01 in /  0.25 mm
16:35 33.3 °F /  0.7 °C 29.9 °F /  -1.2 °C 29.89 in /  1012.1 hPa NNW 7.0 mph /  11.3 km/h 19.0 mph /  30.6 km/h 87 % 0.00 in /  0 mm
16:40 33.3 °F /  0.7 °C 29.9 °F /  -1.2 °C 29.89 in /  1012.1 hPa NNW 7.0 mph /  11.3 km/h 19.0 mph /  30.6 km/h 87 % 0.00 in /  0 mm
16:45 33.4 °F /  0.8 °C 29.7 °F /  -1.3 °C 29.90 in /  1012.4 hPa NNW 8.0 mph /  12.9 km/h 20.0 mph /  32.2 km/h 86 % 0.00 in /  0 mm
16:47 33.3 °F /  0.7 °C 30.0 °F /  -1.1 °C 29.95 in /  1014.1 hPa NNW 10.0 mph /  16.1 km/h 18.0 mph /  29 km/h 86 % 0.00 in /  0 mm
16:50 33.4 °F /  0.8 °C 29.7 °F /  -1.3 °C 29.90 in /  1012.4 hPa NNW 8.0 mph /  12.9 km/h 20.0 mph /  32.2 km/h 86 % 0.00 in /  0 mm
16:55 33.4 °F /  0.8 °C 29.7 °F /  -1.3 °C 29.90 in /  1012.4 hPa NNW 8.0 mph /  12.9 km/h 20.0 mph /  32.2 km/h 86 % 0.00 in /  0 mm
17:00 33.3 °F /  0.7 °C 29.6 °F /  -1.3 °C 29.92 in /  1013.1 hPa NNW 8.0 mph /  12.9 km/h 20.0 mph /  32.2 km/h 86 % 0.00 in /  0 mm
17:02 33.1 °F /  0.6 °C 29.0 °F /  -1.7 °C 29.96 in /  1014.4 hPa NNW 3.0 mph /  4.8 km/h 15.0 mph /  24.1 km/h 86 % 0.00 in /  0 mm
17:05 33.3 °F /  0.7 °C 29.6 °F /  -1.3 °C 29.92 in /  1013.1 hPa NNW 8.0 mph /  12.9 km/h 20.0 mph /  32.2 km/h 86 % 0.00 in /  0 mm
17:10 33.3 °F /  0.7 °C 29.6 °F /  -1.3 °C 29.92 in /  1013.1 hPa NNW 8.0 mph /  12.9 km/h 20.0 mph /  32.2 km/h 86 % 0.00 in /  0 mm
17:15 33.1 °F /  0.6 °C 29.4 °F /  -1.4 °C 29.93 in /  1013.4 hPa NNW 7.0 mph /  11.3 km/h 18.0 mph /  29 km/h 86 % 0.00 in /  0 mm
17:17 32.9 °F /  0.5 °C 29.0 °F /  -1.7 °C 29.97 in /  1014.8 hPa NNW 5.0 mph /  8 km/h 17.0 mph /  27.4 km/h 86 % 0.00 in /  0 mm
17:20 33.1 °F /  0.6 °C 29.4 °F /  -1.4 °C 29.93 in /  1013.4 hPa NNW 7.0 mph /  11.3 km/h 18.0 mph /  29 km/h 86 % 0.00 in /  0 mm
17:25 33.1 °F /  0.6 °C 29.4 °F /  -1.4 °C 29.93 in /  1013.4 hPa NNW 7.0 mph /  11.3 km/h 18.0 mph /  29 km/h 86 % 0.00 in /  0 mm
17:30 32.8 °F /  0.4 °C 28.8 °F /  -1.8 °C 29.94 in /  1013.8 hPa NNW 8.0 mph /  12.9 km/h 21.0 mph /  33.8 km/h 85 % 0.00 in /  0 mm
17:32 32.6 °F /  0.3 °C 29.0 °F /  -1.7 °C 29.99 in /  1015.5 hPa NW 7.0 mph /  11.3 km/h 13.0 mph /  20.9 km/h 85 % 0.00 in /  0 mm
17:35 32.8 °F /  0.4 °C 28.8 °F /  -1.8 °C 29.94 in /  1013.8 hPa NNW 8.0 mph /  12.9 km/h 21.0 mph /  33.8 km/h 85 % 0.00 in /  0 mm
17:40 32.8 °F /  0.4 °C 28.8 °F /  -1.8 °C 29.94 in /  1013.8 hPa NNW 8.0 mph /  12.9 km/h 21.0 mph /  33.8 km/h 85 % 0.00 in /  0 mm
17:45 32.6 °F /  0.3 °C 28.6 °F /  -1.9 °C 29.96 in /  1014.4 hPa NNW 8.0 mph /  12.9 km/h 19.0 mph /  30.6 km/h 85 % 0.00 in /  0 mm
17:47 32.4 °F /  0.2 °C 28.0 °F /  -2.2 °C 30.00 in /  1015.8 hPa WSW 4.0 mph /  6.4 km/h 19.0 mph /  30.6 km/h 84 % 0.00 in /  0 mm
17:50 32.6 °F /  0.3 °C 28.6 °F /  -1.9 °C 29.96 in /  1014.4 hPa NNW 8.0 mph /  12.9 km/h 19.0 mph /  30.6 km/h 85 % 0.00 in /  0 mm
17:55 32.6 °F /  0.3 °C 28.6 °F /  -1.9 °C 29.96 in /  1014.4 hPa NNW 8.0 mph /  12.9 km/h 19.0 mph /  30.6 km/h 85 % 0.00 in /  0 mm
18:00 32.4 °F /  0.2 °C 28.1 °F /  -2.2 °C 29.97 in /  1014.8 hPa NW 9.0 mph /  14.5 km/h 21.0 mph /  33.8 km/h 84 % 0.00 in /  0 mm
18:02 32.2 °F /  0.1 °C 28.0 °F /  -2.2 °C 30.01 in /  1016.1 hPa WNW 10.0 mph /  16.1 km/h 16.0 mph /  25.7 km/h 83 % 0.00 in /  0 mm
18:05 32.4 °F /  0.2 °C 28.1 °F /  -2.2 °C 29.97 in /  1014.8 hPa NW 9.0 mph /  14.5 km/h 21.0 mph /  33.8 km/h 84 % 0.00 in /  0 mm
18:10 32.4 °F /  0.2 °C 28.1 °F /  -2.2 °C 29.97 in /  1014.8 hPa NW 9.0 mph /  14.5 km/h 21.0 mph /  33.8 km/h 84 % 0.00 in /  0 mm
18:15 32.2 °F /  0.1 °C 27.6 °F /  -2.4 °C 29.98 in /  1015.1 hPa NNW 8.0 mph /  12.9 km/h 22.0 mph /  35.4 km/h 83 % 0.00 in /  0 mm
18:17 32.1 °F /  0.1 °C 28.0 °F /  -2.2 °C 30.02 in /  1016.5 hPa NE 8.0 mph /  12.9 km/h 15.0 mph /  24.1 km/h 83 % 0.00 in /  0 mm
18:20 32.2 °F /  0.1 °C 27.6 °F /  -2.4 °C 29.98 in /  1015.1 hPa NNW 8.0 mph /  12.9 km/h 22.0 mph /  35.4 km/h 83 % 0.00 in /  0 mm
18:25 32.2 °F /  0.1 °C 27.6 °F /  -2.4 °C 29.98 in /  1015.1 hPa NNW 8.0 mph /  12.9 km/h 22.0 mph /  35.4 km/h 83 % 0.00 in /  0 mm
18:30 32.1 °F /  0.1 °C 27.8 °F /  -2.3 °C 29.99 in /  1015.5 hPa NW 7.0 mph /  11.3 km/h 17.0 mph /  27.4 km/h 84 % 0.00 in /  0 mm
18:32 31.6 °F /  -0.2 °C 27.0 °F /  -2.8 °C 30.03 in /  1016.8 hPa North 6.0 mph /  9.7 km/h 17.0 mph /  27.4 km/h 84 % 0.00 in /  0 mm
18:35 32.1 °F /  0.1 °C 27.8 °F /  -2.3 °C 29.99 in /  1015.5 hPa NW 7.0 mph /  11.3 km/h 17.0 mph /  27.4 km/h 84 % 0.00 in /  0 mm
18:40 32.1 °F /  0.1 °C 27.8 °F /  -2.3 °C 29.99 in /  1015.5 hPa NW 7.0 mph /  11.3 km/h 17.0 mph /  27.4 km/h 84 % 0.00 in /  0 mm
18:45 31.6 °F /  -0.2 °C 27.3 °F /  -2.6 °C 30.00 in /  1015.8 hPa NNW 9.0 mph /  14.5 km/h 20.0 mph /  32.2 km/h 84 % 0.00 in /  0 mm
18:48 31.4 °F /  -0.3 °C 27.0 °F /  -2.8 °C 30.04 in /  1017.2 hPa WNW 7.0 mph /  11.3 km/h 15.0 mph /  24.1 km/h 85 % 0.00 in /  0 mm
18:50 31.6 °F /  -0.2 °C 27.3 °F /  -2.6 °C 30.00 in /  1015.8 hPa NNW 9.0 mph /  14.5 km/h 20.0 mph /  32.2 km/h 84 % 0.00 in /  0 mm
18:55 31.6 °F /  -0.2 °C 27.3 °F /  -2.6 °C 30.00 in /  1015.8 hPa NNW 9.0 mph /  14.5 km/h 20.0 mph /  32.2 km/h 84 % 0.00 in /  0 mm
19:00 31.4 °F /  -0.3 °C 27.4 °F /  -2.6 °C 30.01 in /  1016.1 hPa NNW 7.0 mph /  11.3 km/h 17.0 mph /  27.4 km/h 85 % 0.00 in /  0 mm
19:03 31.3 °F /  -0.4 °C 27.0 °F /  -2.8 °C 30.05 in /  1017.5 hPa NW 8.0 mph /  12.9 km/h 16.0 mph /  25.7 km/h 85 % 0.00 in /  0 mm
19:05 31.4 °F /  -0.3 °C 27.4 °F /  -2.6 °C 30.01 in /  1016.1 hPa NNW 7.0 mph /  11.3 km/h 17.0 mph /  27.4 km/h 85 % 0.00 in /  0 mm
19:10 31.4 °F /  -0.3 °C 27.4 °F /  -2.6 °C 30.01 in /  1016.1 hPa NNW 7.0 mph /  11.3 km/h 17.0 mph /  27.4 km/h 85 % 0.00 in /  0 mm
19:15 31.3 °F /  -0.4 °C 27.3 °F /  -2.6 °C 30.02 in /  1016.5 hPa NNW 7.0 mph /  11.3 km/h 17.0 mph /  27.4 km/h 85 % 0.00 in /  0 mm
19:18 31.2 °F /  -0.4 °C 27.0 °F /  -2.8 °C 30.04 in /  1017.2 hPa WNW 3.0 mph /  4.8 km/h 14.0 mph /  22.5 km/h 85 % 0.00 in /  0 mm
19:20 31.3 °F /  -0.4 °C 27.3 °F /  -2.6 °C 30.02 in /  1016.5 hPa NNW 7.0 mph /  11.3 km/h 17.0 mph /  27.4 km/h 85 % 0.00 in /  0 mm
19:25 31.3 °F /  -0.4 °C 27.3 °F /  -2.6 °C 30.02 in /  1016.5 hPa NNW 7.0 mph /  11.3 km/h 17.0 mph /  27.4 km/h 85 % 0.00 in /  0 mm
19:30 31.2 °F /  -0.4 °C 27.2 °F /  -2.7 °C 30.02 in /  1016.5 hPa NNW 7.0 mph /  11.3 km/h 19.0 mph /  30.6 km/h 85 % 0.00 in /  0 mm
19:33 31.2 °F /  -0.4 °C 27.0 °F /  -2.8 °C 30.05 in /  1017.5 hPa NW 2.0 mph /  3.2 km/h 12.0 mph /  19.3 km/h 85 % 0.00 in /  0 mm
19:35 31.2 °F /  -0.4 °C 27.2 °F /  -2.7 °C 30.02 in /  1016.5 hPa NNW 7.0 mph /  11.3 km/h 19.0 mph /  30.6 km/h 85 % 0.00 in /  0 mm
19:40 31.2 °F /  -0.4 °C 27.2 °F /  -2.7 °C 30.02 in /  1016.5 hPa NNW 7.0 mph /  11.3 km/h 19.0 mph /  30.6 km/h 85 % 0.00 in /  0 mm
19:45 31.2 °F /  -0.4 °C 27.2 °F /  -2.7 °C 30.03 in /  1016.8 hPa NNW 6.0 mph /  9.7 km/h 17.0 mph /  27.4 km/h 85 % 0.00 in /  0 mm
19:48 31.3 °F /  -0.4 °C 27.0 °F /  -2.8 °C 30.07 in /  1018.2 hPa NW 4.0 mph /  6.4 km/h 15.0 mph /  24.1 km/h 84 % 0.00 in /  0 mm
19:50 31.2 °F /  -0.4 °C 27.2 °F /  -2.7 °C 30.03 in /  1016.8 hPa NNW 6.0 mph /  9.7 km/h 17.0 mph /  27.4 km/h 85 % 0.00 in /  0 mm
19:55 31.2 °F /  -0.4 °C 27.2 °F /  -2.7 °C 30.03 in /  1016.8 hPa NNW 6.0 mph /  9.7 km/h 17.0 mph /  27.4 km/h 85 % 0.00 in /  0 mm
20:00 31.3 °F /  -0.4 °C 27.0 °F /  -2.8 °C 30.03 in /  1016.8 hPa NNW 7.0 mph /  11.3 km/h 17.0 mph /  27.4 km/h 84 % 0.00 in /  0 mm
20:03 31.4 °F /  -0.3 °C 27.0 °F /  -2.8 °C 30.08 in /  1018.5 hPa NW 5.0 mph /  8 km/h 15.0 mph /  24.1 km/h 84 % 0.00 in /  0 mm
20:05 31.3 °F /  -0.4 °C 27.0 °F /  -2.8 °C 30.03 in /  1016.8 hPa NNW 7.0 mph /  11.3 km/h 17.0 mph /  27.4 km/h 84 % 0.00 in /  0 mm
20:10 31.3 °F /  -0.4 °C 27.0 °F /  -2.8 °C 30.03 in /  1016.8 hPa NNW 7.0 mph /  11.3 km/h 17.0 mph /  27.4 km/h 84 % 0.00 in /  0 mm
20:15 31.4 °F /  -0.3 °C 27.1 °F /  -2.7 °C 30.05 in /  1017.5 hPa NNW 7.0 mph /  11.3 km/h 18.0 mph /  29 km/h 84 % 0.00 in /  0 mm
20:18 31.4 °F /  -0.3 °C 27.0 °F /  -2.8 °C 30.08 in /  1018.5 hPa NW 5.0 mph /  8 km/h 11.0 mph /  17.7 km/h 84 % 0.00 in /  0 mm
20:25 31.4 °F /  -0.3 °C 27.1 °F /  -2.7 °C 30.05 in /  1017.5 hPa NNW 7.0 mph /  11.3 km/h 18.0 mph /  29 km/h 84 % 0.00 in /  0 mm
20:30 31.4 °F /  -0.3 °C 27.1 °F /  -2.7 °C 30.05 in /  1017.5 hPa NW 5.0 mph /  8 km/h 15.0 mph /  24.1 km/h 84 % 0.00 in /  0 mm
20:33 31.3 °F /  -0.4 °C 27.0 °F /  -2.8 °C 30.09 in /  1018.8 hPa WSW 4.0 mph /  6.4 km/h 11.0 mph /  17.7 km/h 85 % 0.00 in /  0 mm
20:35 31.4 °F /  -0.3 °C 27.1 °F /  -2.7 °C 30.05 in /  1017.5 hPa NW 5.0 mph /  8 km/h 15.0 mph /  24.1 km/h 84 % 0.00 in /  0 mm
20:40 31.4 °F /  -0.3 °C 27.1 °F /  -2.7 °C 30.05 in /  1017.5 hPa NW 5.0 mph /  8 km/h 15.0 mph /  24.1 km/h 84 % 0.00 in /  0 mm
20:45 31.4 °F /  -0.3 °C 27.4 °F /  -2.6 °C 30.06 in /  1017.8 hPa NW 5.0 mph /  8 km/h 17.0 mph /  27.4 km/h 85 % 0.00 in /  0 mm
20:48 31.3 °F /  -0.4 °C 28.0 °F /  -2.2 °C 30.09 in /  1018.8 hPa NW 3.0 mph /  4.8 km/h 11.0 mph /  17.7 km/h 86 % 0.00 in /  0 mm
20:50 31.4 °F /  -0.3 °C 27.4 °F /  -2.6 °C 30.06 in /  1017.8 hPa NW 5.0 mph /  8 km/h 17.0 mph /  27.4 km/h 85 % 0.00 in /  0 mm
20:55 31.4 °F /  -0.3 °C 27.4 °F /  -2.6 °C 30.06 in /  1017.8 hPa NW 5.0 mph /  8 km/h 17.0 mph /  27.4 km/h 85 % 0.00 in /  0 mm
21:00 31.3 °F /  -0.4 °C 27.6 °F /  -2.4 °C 30.06 in /  1017.8 hPa NNW 6.0 mph /  9.7 km/h 13.0 mph /  20.9 km/h 86 % 0.00 in /  0 mm
21:03 31.3 °F /  -0.4 °C 28.0 °F /  -2.2 °C 30.09 in /  1018.8 hPa WNW 7.0 mph /  11.3 km/h 10.0 mph /  16.1 km/h 86 % 0.00 in /  0 mm
21:05 31.3 °F /  -0.4 °C 27.6 °F /  -2.4 °C 30.06 in /  1017.8 hPa NNW 6.0 mph /  9.7 km/h 13.0 mph /  20.9 km/h 86 % 0.00 in /  0 mm
21:10 31.3 °F /  -0.4 °C 27.6 °F /  -2.4 °C 30.06 in /  1017.8 hPa NNW 6.0 mph /  9.7 km/h 13.0 mph /  20.9 km/h 86 % 0.00 in /  0 mm
21:15 31.3 °F /  -0.4 °C 27.6 °F /  -2.4 °C 30.07 in /  1018.2 hPa NNW 4.0 mph /  6.4 km/h 12.0 mph /  19.3 km/h 86 % 0.00 in /  0 mm
21:18 31.3 °F /  -0.4 °C 28.0 °F /  -2.2 °C 30.10 in /  1019.2 hPa NW 3.0 mph /  4.8 km/h 10.0 mph /  16.1 km/h 86 % 0.00 in /  0 mm
21:20 31.3 °F /  -0.4 °C 27.6 °F /  -2.4 °C 30.07 in /  1018.2 hPa NNW 4.0 mph /  6.4 km/h 12.0 mph /  19.3 km/h 86 % 0.00 in /  0 mm
21:25 31.3 °F /  -0.4 °C 27.6 °F /  -2.4 °C 30.07 in /  1018.2 hPa NNW 4.0 mph /  6.4 km/h 12.0 mph /  19.3 km/h 86 % 0.00 in /  0 mm
21:30 31.3 °F /  -0.4 °C 27.6 °F /  -2.4 °C 30.07 in /  1018.2 hPa NNW 3.0 mph /  4.8 km/h 12.0 mph /  19.3 km/h 86 % 0.00 in /  0 mm
21:33 31.3 °F /  -0.4 °C 28.0 °F /  -2.2 °C 30.10 in /  1019.2 hPa West 6.0 mph /  9.7 km/h 17.0 mph /  27.4 km/h 86 % 0.00 in /  0 mm
21:35 31.3 °F /  -0.4 °C 27.6 °F /  -2.4 °C 30.07 in /  1018.2 hPa NNW 3.0 mph /  4.8 km/h 12.0 mph /  19.3 km/h 86 % 0.00 in /  0 mm
21:40 31.3 °F /  -0.4 °C 27.6 °F /  -2.4 °C 30.07 in /  1018.2 hPa NNW 3.0 mph /  4.8 km/h 12.0 mph /  19.3 km/h 86 % 0.00 in /  0 mm
21:45 31.3 °F /  -0.4 °C 27.6 °F /  -2.4 °C 30.08 in /  1018.5 hPa NNW 4.0 mph /  6.4 km/h 18.0 mph /  29 km/h 86 % 0.00 in /  0 mm
21:48 31.0 °F /  -0.6 °C 27.0 °F /  -2.8 °C 30.11 in /  1019.5 hPa NNW 9.0 mph /  14.5 km/h 15.0 mph /  24.1 km/h 86 % 0.00 in /  0 mm
21:50 31.3 °F /  -0.4 °C 27.6 °F /  -2.4 °C 30.08 in /  1018.5 hPa NNW 4.0 mph /  6.4 km/h 18.0 mph /  29 km/h 86 % 0.00 in /  0 mm
21:55 31.3 °F /  -0.4 °C 27.6 °F /  -2.4 °C 30.08 in /  1018.5 hPa NNW 4.0 mph /  6.4 km/h 18.0 mph /  29 km/h 86 % 0.00 in /  0 mm
22:00 31.0 °F /  -0.6 °C 27.3 °F /  -2.6 °C 30.08 in /  1018.5 hPa NNW 7.0 mph /  11.3 km/h 17.0 mph /  27.4 km/h 86 % 0.00 in /  0 mm
22:03 30.8 °F /  -0.7 °C 27.0 °F /  -2.8 °C 30.12 in /  1019.9 hPa NW 4.0 mph /  6.4 km/h 15.0 mph /  24.1 km/h 86 % 0.00 in /  0 mm
22:05 31.0 °F /  -0.6 °C 27.3 °F /  -2.6 °C 30.08 in /  1018.5 hPa NNW 7.0 mph /  11.3 km/h 17.0 mph /  27.4 km/h 86 % 0.00 in /  0 mm
22:10 31.0 °F /  -0.6 °C 27.3 °F /  -2.6 °C 30.08 in /  1018.5 hPa NNW 7.0 mph /  11.3 km/h 17.0 mph /  27.4 km/h 86 % 0.00 in /  0 mm
22:15 30.8 °F /  -0.7 °C 27.1 °F /  -2.7 °C 30.09 in /  1018.8 hPa NNW 6.0 mph /  9.7 km/h 18.0 mph /  29 km/h 86 % 0.00 in /  0 mm
22:18 30.6 °F /  -0.8 °C 27.0 °F /  -2.8 °C 30.13 in /  1020.2 hPa NW 6.0 mph /  9.7 km/h 13.0 mph /  20.9 km/h 86 % 0.00 in /  0 mm
22:20 30.8 °F /  -0.7 °C 27.1 °F /  -2.7 °C 30.09 in /  1018.8 hPa NNW 6.0 mph /  9.7 km/h 18.0 mph /  29 km/h 86 % 0.00 in /  0 mm
22:25 30.8 °F /  -0.7 °C 27.1 °F /  -2.7 °C 30.09 in /  1018.8 hPa NNW 6.0 mph /  9.7 km/h 18.0 mph /  29 km/h 86 % 0.00 in /  0 mm
22:30 30.6 °F /  -0.8 °C 26.9 °F /  -2.8 °C 30.09 in /  1018.8 hPa NNW 5.0 mph /  8 km/h 15.0 mph /  24.1 km/h 86 % 0.00 in /  0 mm
22:33 30.5 °F /  -0.8 °C 27.0 °F /  -2.8 °C 30.14 in /  1020.5 hPa NW 9.0 mph /  14.5 km/h 15.0 mph /  24.1 km/h 85 % 0.00 in /  0 mm
22:35 30.6 °F /  -0.8 °C 26.9 °F /  -2.8 °C 30.09 in /  1018.8 hPa NNW 5.0 mph /  8 km/h 15.0 mph /  24.1 km/h 86 % 0.00 in /  0 mm
22:40 30.6 °F /  -0.8 °C 26.9 °F /  -2.8 °C 30.09 in /  1018.8 hPa NNW 5.0 mph /  8 km/h 15.0 mph /  24.1 km/h 86 % 0.00 in /  0 mm
22:45 30.5 °F /  -0.8 °C 26.5 °F /  -3.1 °C 30.10 in /  1019.2 hPa NNW 6.0 mph /  9.7 km/h 16.0 mph /  25.7 km/h 85 % 0.00 in /  0 mm
22:48 30.3 °F /  -0.9 °C 26.0 °F /  -3.3 °C 30.13 in /  1020.2 hPa NW 5.0 mph /  8 km/h 12.0 mph /  19.3 km/h 85 % 0.00 in /  0 mm
22:50 30.5 °F /  -0.8 °C 26.5 °F /  -3.1 °C 30.10 in /  1019.2 hPa NNW 6.0 mph /  9.7 km/h 16.0 mph /  25.7 km/h 85 % 0.00 in /  0 mm
22:55 30.5 °F /  -0.8 °C 26.5 °F /  -3.1 °C 30.10 in /  1019.2 hPa NNW 6.0 mph /  9.7 km/h 16.0 mph /  25.7 km/h 85 % 0.00 in /  0 mm
23:00 30.3 °F /  -0.9 °C 26.4 °F /  -3.1 °C 30.10 in /  1019.2 hPa NW 7.0 mph /  11.3 km/h 18.0 mph /  29 km/h 85 % 0.00 in /  0 mm
23:03 30.3 °F /  -0.9 °C 26.0 °F /  -3.3 °C 30.14 in /  1020.5 hPa NW 2.0 mph /  3.2 km/h 12.0 mph /  19.3 km/h 85 % 0.00 in /  0 mm
23:05 30.3 °F /  -0.9 °C 26.4 °F /  -3.1 °C 30.10 in /  1019.2 hPa NW 7.0 mph /  11.3 km/h 18.0 mph /  29 km/h 85 % 0.00 in /  0 mm
23:10 30.3 °F /  -0.9 °C 26.4 °F /  -3.1 °C 30.10 in /  1019.2 hPa NW 7.0 mph /  11.3 km/h 18.0 mph /  29 km/h 85 % 0.00 in /  0 mm
23:15 30.2 °F /  -1 °C 26.2 °F /  -3.2 °C 30.11 in /  1019.5 hPa NNW 6.0 mph /  9.7 km/h 14.0 mph /  22.5 km/h 85 % 0.00 in /  0 mm
23:18 30.2 °F /  -1 °C 26.0 °F /  -3.3 °C 30.14 in /  1020.5 hPa NW 2.0 mph /  3.2 km/h 12.0 mph /  19.3 km/h 85 % 0.00 in /  0 mm
23:20 30.2 °F /  -1 °C 26.2 °F /  -3.2 °C 30.11 in /  1019.5 hPa NNW 6.0 mph /  9.7 km/h 14.0 mph /  22.5 km/h 85 % 0.00 in /  0 mm
23:25 30.2 °F /  -1 °C 26.2 °F /  -3.2 °C 30.11 in /  1019.5 hPa NNW 6.0 mph /  9.7 km/h 14.0 mph /  22.5 km/h 85 % 0.00 in /  0 mm
23:30 30.2 °F /  -1 °C 26.2 °F /  -3.2 °C 30.11 in /  1019.5 hPa NW 5.0 mph /  8 km/h 15.0 mph /  24.1 km/h 85 % 0.00 in /  0 mm
23:33 30.0 °F /  -1.1 °C 26.0 °F /  -3.3 °C 30.14 in /  1020.5 hPa NW 10.0 mph /  16.1 km/h 15.0 mph /  24.1 km/h 85 % 0.00 in /  0 mm
23:35 30.2 °F /  -1 °C 26.2 °F /  -3.2 °C 30.11 in /  1019.5 hPa NW 5.0 mph /  8 km/h 15.0 mph /  24.1 km/h 85 % 0.00 in /  0 mm
23:40 30.2 °F /  -1 °C 26.2 °F /  -3.2 °C 30.11 in /  1019.5 hPa NW 5.0 mph /  8 km/h 15.0 mph /  24.1 km/h 85 % 0.00 in /  0 mm
23:45 30.0 °F /  -1.1 °C 26.0 °F /  -3.3 °C 30.11 in /  1019.5 hPa NW 6.0 mph /  9.7 km/h 15.0 mph /  24.1 km/h 85 % 0.00 in /  0 mm
23:48 29.7 °F /  -1.3 °C 26.0 °F /  -3.3 °C 30.15 in /  1020.9 hPa NW 5.0 mph /  8 km/h 13.0 mph /  20.9 km/h 85 % 0.00 in /  0 mm
23:50 30.0 °F /  -1.1 °C 26.0 °F /  -3.3 °C 30.11 in /  1019.5 hPa NW 6.0 mph /  9.7 km/h 15.0 mph /  24.1 km/h 85 % 0.00 in /  0 mm
23:55 30.0 °F /  -1.1 °C 26.0 °F /  -3.3 °C 30.11 in /  1019.5 hPa NW 6.0 mph /  9.7 km/h 15.0 mph /  24.1 km/h 85 % 0.00 in /  0 mm
Des Moines Weather and Climate
Compliments of Weather Underground - 4.75 mb

Script developed by  Jim McMurry - jmcmurry@mwt.net Adapted for the template by  Wim van der Kuil - Leuven-Template.eu

You find our weather info also at:

Weather Underground

Equipment we use:

Weather-station
Davis VP2 Plus

Weather-program
Davis Weatherlink.Com

Weather-server
iMac (Retina 4K, 21.5-inch, Late 2015)

Provider
Hostmonster.com

Davis VP2 Plus

Davis Weatherlink.Com

iMac (Retina 4K, 21.5-inch, Late 2015)

Hostmonster.com